createdAt,value
2022-10-08T00:09:45.393Z,85
2022-10-08T00:19:52.934Z,85
2022-10-08T00:30:00.413Z,85
2022-10-08T00:40:07.760Z,85
2022-10-08T00:50:16.567Z,86
2022-10-08T01:00:24.105Z,86
2022-10-08T01:10:31.516Z,87
2022-10-08T01:20:38.956Z,86
2022-10-08T01:30:46.387Z,86
2022-10-08T01:40:53.836Z,86
2022-10-08T01:51:01.286Z,86
2022-10-08T02:01:08.757Z,86
2022-10-08T02:11:16.079Z,86
2022-10-08T02:21:23.653Z,86
2022-10-08T02:31:32.325Z,86
2022-10-08T02:41:39.720Z,87
2022-10-08T02:51:47.280Z,88
2022-10-08T03:01:54.996Z,89
2022-10-08T03:12:02.437Z,88
2022-10-08T03:22:09.931Z,88
2022-10-08T03:32:17.405Z,87
2022-10-08T03:42:25.934Z,87
2022-10-08T03:52:33.483Z,87
2022-10-08T04:02:41.036Z,86
2022-10-08T04:12:48.259Z,87
2022-10-08T04:22:55.547Z,87
2022-10-08T04:33:04.338Z,86
2022-10-08T04:43:10.843Z,86
2022-10-08T04:53:20.586Z,86
2022-10-08T05:03:28.116Z,86
2022-10-08T05:13:35.577Z,87
2022-10-08T05:23:43.127Z,87
2022-10-08T05:33:50.598Z,86
2022-10-08T05:43:59.415Z,86
2022-10-08T05:54:07.012Z,85
2022-10-08T06:04:15.637Z,85
2022-10-08T06:14:22.971Z,85
2022-10-08T06:24:30.989Z,85
2022-10-08T06:34:39.561Z,85
2022-10-08T06:44:47.104Z,85
2022-10-08T06:54:54.214Z,86
2022-10-08T07:05:02.178Z,86
2022-10-08T07:15:09.758Z,84
2022-10-08T07:25:17.246Z,85
2022-10-08T07:35:24.751Z,85
2022-10-08T07:45:32.448Z,84
2022-10-08T07:55:39.955Z,84
2022-10-08T08:05:47.442Z,83
2022-10-08T08:15:55.956Z,82
2022-10-08T08:26:04.797Z,81
2022-10-08T08:36:12.452Z,79
2022-10-08T08:46:20.244Z,79
2022-10-08T08:56:27.784Z,78
2022-10-08T09:06:35.442Z,78
2022-10-08T09:16:35.662Z,78
2022-10-08T09:26:43.606Z,75
2022-10-08T09:36:51.313Z,72
2022-10-08T09:46:58.859Z,69
2022-10-08T09:57:06.322Z,66
2022-10-08T10:07:13.919Z,65
2022-10-08T10:17:21.517Z,64
2022-10-08T10:27:29.254Z,63
2022-10-08T10:37:36.780Z,62
2022-10-08T10:47:45.371Z,61
2022-10-08T10:57:52.979Z,62
2022-10-08T11:08:00.468Z,63
2022-10-08T11:18:07.950Z,61
2022-10-08T11:38:17.782Z,59
2022-10-08T11:48:25.543Z,60
2022-10-08T11:58:33.682Z,61
2022-10-08T12:08:41.788Z,59
2022-10-08T12:18:50.446Z,60
2022-10-08T12:28:58.282Z,61
2022-10-08T12:39:05.995Z,62
2022-10-08T12:49:15.009Z,61
2022-10-08T12:59:22.637Z,61
2022-10-08T13:09:30.254Z,60
2022-10-08T13:19:41.192Z,62
2022-10-08T13:29:49.097Z,61
2022-10-08T13:39:56.944Z,60
2022-10-08T14:00:06.929Z,59
2022-10-08T14:10:16.264Z,59
2022-10-08T14:20:24.322Z,61
2022-10-08T14:30:32.586Z,62
2022-10-08T14:40:40.595Z,62
2022-10-08T14:50:48.555Z,63
2022-10-08T15:00:56.761Z,64
2022-10-08T15:11:04.411Z,64
2022-10-08T15:21:11.949Z,64
2022-10-08T15:31:19.646Z,65
2022-10-08T15:41:27.182Z,65
2022-10-08T15:51:36.207Z,66
2022-10-08T16:01:35.181Z,66
2022-10-08T16:11:43.468Z,65
2022-10-08T16:21:51.711Z,66
2022-10-08T16:31:51.837Z,67
2022-10-08T16:41:59.421Z,68
2022-10-08T16:52:08.036Z,67
2022-10-08T17:02:15.557Z,68
2022-10-08T17:12:21.898Z,68
2022-10-08T17:22:28.752Z,67
2022-10-08T17:32:36.425Z,67
2022-10-08T17:42:43.938Z,67
2022-10-08T17:52:51.075Z,68
2022-10-08T18:02:58.458Z,67
2022-10-08T18:13:06.132Z,67
2022-10-08T18:23:13.812Z,67
2022-10-08T18:33:24.029Z,66
2022-10-08T18:43:27.462Z,68
2022-10-08T18:53:35.158Z,68
2022-10-08T19:03:42.753Z,68
2022-10-08T19:13:50.437Z,70
2022-10-08T19:23:58.134Z,70
2022-10-08T19:34:05.661Z,72
2022-10-08T19:44:13.130Z,72
2022-10-08T19:54:20.812Z,72
2022-10-08T20:04:29.315Z,73
2022-10-08T20:14:36.938Z,73
2022-10-08T20:24:44.518Z,73
2022-10-08T20:34:52.097Z,73
2022-10-08T20:45:01.982Z,74
2022-10-08T20:55:09.679Z,74
2022-10-08T21:05:17.282Z,74
2022-10-08T21:15:28.217Z,74
2022-10-08T21:25:36.418Z,75
2022-10-08T21:35:44.018Z,76
2022-10-08T21:45:53.494Z,77
2022-10-08T21:55:54.544Z,78
2022-10-08T22:05:52.432Z,79
2022-10-08T22:16:00.676Z,79
2022-10-08T22:26:00.707Z,78
2022-10-08T22:36:09.560Z,77
2022-10-08T22:46:17.371Z,79
2022-10-08T22:56:24.960Z,79
2022-10-08T23:06:32.755Z,79
2022-10-08T23:16:41.987Z,79
2022-10-08T23:26:49.935Z,79
2022-10-08T23:36:57.734Z,80
2022-10-08T23:47:05.485Z,80
2022-10-08T23:57:13.181Z,79
